createdAt,value
2022-12-26T00:01:56.696Z,10.90
2022-12-26T00:04:50.930Z,10.90
2022-12-26T00:07:10.171Z,11.00
2022-12-26T00:09:36.818Z,11.00
2022-12-26T00:12:03.742Z,10.90
2022-12-26T00:14:31.320Z,10.90
2022-12-26T00:16:58.027Z,10.90
2022-12-26T00:19:25.152Z,10.90
2022-12-26T00:21:51.799Z,10.90
2022-12-26T00:24:18.791Z,10.90
2022-12-26T00:26:45.468Z,10.90
2022-12-26T00:29:12.261Z,10.90
2022-12-26T00:31:39.018Z,10.90
2022-12-26T00:34:05.791Z,10.90
2022-12-26T00:36:33.045Z,10.90
2022-12-26T00:39:00.552Z,10.90
2022-12-26T00:41:27.280Z,10.80
2022-12-26T00:43:54.084Z,10.80
2022-12-26T00:46:24.354Z,10.80
2022-12-26T00:48:51.162Z,10.90
2022-12-26T00:51:17.916Z,10.90
2022-12-26T00:53:45.242Z,10.80
2022-12-26T00:56:12.281Z,10.90
2022-12-26T00:58:39.042Z,10.90
2022-12-26T01:01:18.718Z,10.90
2022-12-26T01:03:45.919Z,10.90
2022-12-26T01:06:12.922Z,10.80
2022-12-26T01:08:39.728Z,10.80
2022-12-26T01:11:10.835Z,10.80
2022-12-26T01:13:37.732Z,10.80
2022-12-26T01:16:04.726Z,10.80
2022-12-26T01:18:32.198Z,10.80
2022-12-26T01:21:04.138Z,10.90
2022-12-26T01:23:30.864Z,10.90
2022-12-26T01:26:15.315Z,10.90
2022-12-26T01:28:44.236Z,10.90
2022-12-26T01:31:10.970Z,10.90
2022-12-26T01:33:37.711Z,10.90
2022-12-26T01:36:04.655Z,11.00
2022-12-26T01:38:31.352Z,10.90
2022-12-26T01:41:16.546Z,10.90
2022-12-26T01:43:57.741Z,10.90
2022-12-26T01:46:28.785Z,10.80
2022-12-26T01:49:01.003Z,10.80
2022-12-26T01:51:29.683Z,10.90
2022-12-26T01:54:37.655Z,10.90
2022-12-26T01:56:44.497Z,10.80
2022-12-26T01:59:15.713Z,10.80
2022-12-26T02:01:42.558Z,10.80
2022-12-26T02:04:30.063Z,10.80
2022-12-26T02:06:56.729Z,10.80
2022-12-26T02:09:23.394Z,10.80
2022-12-26T02:12:35.413Z,10.80
2022-12-26T02:15:05.496Z,10.80
2022-12-26T02:17:32.166Z,10.80
2022-12-26T02:19:59.193Z,10.70
2022-12-26T02:22:34.748Z,10.70
2022-12-26T02:25:07.516Z,10.70
2022-12-26T02:27:55.909Z,10.70
2022-12-26T02:30:34.593Z,10.70
2022-12-26T02:33:28.937Z,10.60
2022-12-26T02:36:04.795Z,10.60
2022-12-26T02:38:41.985Z,10.60
2022-12-26T02:41:23.863Z,10.70
2022-12-26T02:44:49.614Z,10.70
2022-12-26T02:47:43.643Z,10.70
2022-12-26T02:51:03.392Z,10.80
2022-12-26T02:54:12.541Z,10.80
2022-12-26T02:57:02.767Z,10.80
2022-12-26T02:59:57.191Z,10.80
2022-12-26T03:02:50.717Z,10.80
2022-12-26T03:05:46.370Z,10.80
2022-12-26T03:08:32.460Z,10.90
2022-12-26T03:11:17.569Z,10.90
2022-12-26T03:13:44.234Z,10.90
2022-12-26T03:16:29.404Z,10.90
2022-12-26T03:19:00.820Z,10.90
2022-12-26T03:21:34.669Z,10.90
2022-12-26T03:24:01.370Z,10.90
2022-12-26T03:26:42.199Z,10.90
2022-12-26T03:29:32.539Z,10.90
2022-12-26T03:31:59.760Z,10.90
2022-12-26T03:34:26.428Z,10.90
2022-12-26T03:37:16.752Z,10.90
2022-12-26T03:40:05.425Z,10.90
2022-12-26T03:43:27.805Z,10.80
2022-12-26T03:46:13.045Z,10.70
2022-12-26T03:49:13.761Z,10.70
2022-12-26T03:52:23.647Z,10.70
2022-12-26T03:55:23.179Z,10.60
2022-12-26T03:58:17.996Z,10.60
2022-12-26T04:01:03.257Z,10.70
2022-12-26T04:03:49.083Z,10.70
2022-12-26T04:06:39.597Z,10.70
2022-12-26T04:09:43.329Z,10.60
2022-12-26T04:12:33.216Z,10.70
2022-12-26T04:15:30.651Z,10.70
2022-12-26T04:18:20.037Z,10.70
2022-12-26T04:21:31.530Z,10.70
2022-12-26T04:24:23.960Z,10.70
2022-12-26T04:27:11.283Z,10.70
2022-12-26T04:29:56.410Z,10.80
2022-12-26T04:32:55.150Z,10.70
2022-12-26T04:35:48.062Z,10.70
2022-12-26T04:38:35.178Z,10.70
2022-12-26T04:41:20.377Z,10.70
2022-12-26T04:44:06.042Z,10.70
2022-12-26T04:46:34.527Z,10.60
2022-12-26T04:49:22.867Z,10.70
2022-12-26T04:51:49.788Z,10.70
2022-12-26T04:54:16.695Z,10.70
2022-12-26T04:56:43.519Z,10.70
2022-12-26T04:59:13.350Z,10.70
2022-12-26T05:01:58.425Z,10.60
2022-12-26T05:04:43.620Z,10.60
2022-12-26T05:07:35.880Z,10.60
2022-12-26T05:10:02.615Z,10.60
2022-12-26T05:12:29.307Z,10.60
2022-12-26T05:14:56.825Z,10.60
2022-12-26T05:17:41.952Z,10.60
2022-12-26T05:20:29.705Z,10.60
2022-12-26T05:23:14.787Z,10.60
2022-12-26T05:26:01.512Z,10.70
2022-12-26T05:28:43.234Z,10.60
2022-12-26T05:31:14.755Z,10.60
2022-12-26T05:33:59.869Z,10.60
2022-12-26T05:36:35.944Z,10.50
2022-12-26T05:39:03.045Z,10.50
2022-12-26T05:41:29.720Z,10.50
2022-12-26T05:43:58.597Z,10.40
2022-12-26T05:46:25.454Z,10.40
2022-12-26T05:48:52.279Z,10.40
2022-12-26T05:51:18.951Z,10.30
2022-12-26T05:53:45.795Z,10.30
2022-12-26T05:56:13.687Z,10.30
2022-12-26T05:58:40.752Z,10.30
2022-12-26T06:01:08.315Z,10.30
2022-12-26T06:03:35.671Z,10.20
2022-12-26T06:06:02.585Z,10.20
2022-12-26T06:08:29.420Z,10.20
2022-12-26T06:10:56.113Z,10.20
2022-12-26T06:13:22.837Z,10.20
2022-12-26T06:15:49.594Z,10.20
2022-12-26T06:18:16.330Z,10.10
2022-12-26T06:20:43.055Z,10.10
2022-12-26T06:23:09.753Z,10.10
2022-12-26T06:25:36.428Z,10.10
2022-12-26T06:28:03.226Z,10.00
2022-12-26T06:30:29.949Z,10.10
2022-12-26T06:32:56.916Z,10.10
2022-12-26T06:35:23.594Z,10.00
2022-12-26T06:37:50.249Z,10.00
2022-12-26T06:40:16.981Z,10.00
2022-12-26T06:42:44.046Z,10.00
2022-12-26T06:45:11.203Z,10.00
2022-12-26T06:47:40.741Z,10.00
2022-12-26T06:50:07.700Z,10.00
2022-12-26T06:52:34.611Z,10.00
2022-12-26T06:55:01.414Z,9.90
2022-12-26T06:57:29.149Z,9.90
2022-12-26T06:59:55.913Z,9.90
2022-12-26T07:02:22.723Z,9.90
2022-12-26T07:04:49.479Z,9.90
2022-12-26T07:07:16.242Z,9.90
2022-12-26T07:09:42.910Z,9.80
2022-12-26T07:12:09.604Z,9.90
2022-12-26T07:14:36.593Z,9.80
2022-12-26T07:17:03.278Z,9.80
2022-12-26T07:19:29.945Z,9.80
2022-12-26T07:21:56.659Z,9.90
2022-12-26T07:24:23.486Z,9.90
2022-12-26T07:26:50.179Z,9.90
2022-12-26T07:29:16.942Z,10.00
2022-12-26T07:31:43.664Z,10.00
2022-12-26T07:34:10.452Z,10.00
2022-12-26T07:36:37.679Z,10.00
2022-12-26T07:39:04.407Z,10.00
2022-12-26T07:41:49.577Z,10.00
2022-12-26T07:44:16.293Z,10.00
2022-12-26T07:46:43.064Z,10.00
2022-12-26T07:49:11.856Z,10.10
2022-12-26T07:51:38.561Z,10.10
2022-12-26T07:54:11.107Z,10.10
2022-12-26T07:56:39.158Z,10.10
2022-12-26T07:59:05.854Z,10.10
2022-12-26T08:01:32.729Z,10.10
2022-12-26T08:03:59.549Z,10.10
2022-12-26T08:06:26.352Z,10.10
2022-12-26T08:08:53.038Z,10.10
2022-12-26T08:11:21.390Z,10.10
2022-12-26T08:13:48.107Z,10.10
2022-12-26T08:16:15.059Z,10.20
2022-12-26T08:18:41.865Z,10.20
2022-12-26T08:21:08.904Z,10.20
2022-12-26T08:23:35.652Z,10.20
2022-12-26T08:26:06.841Z,10.10
2022-12-26T08:28:33.648Z,10.20
2022-12-26T08:31:09.119Z,10.20
2022-12-26T08:33:35.952Z,10.20
2022-12-26T08:36:07.285Z,10.20
2022-12-26T08:38:34.260Z,10.20
2022-12-26T08:41:01.190Z,10.20
2022-12-26T08:44:16.070Z,10.20
2022-12-26T08:46:14.897Z,10.20
2022-12-26T08:48:41.699Z,10.20
2022-12-26T08:51:10.999Z,10.30
2022-12-26T08:53:38.203Z,10.30
2022-12-26T08:56:05.890Z,10.30
2022-12-26T08:58:32.880Z,10.40
2022-12-26T09:01:14.207Z,10.40
2022-12-26T09:03:53.403Z,10.40
2022-12-26T09:06:20.252Z,10.40
2022-12-26T09:08:46.907Z,10.30
2022-12-26T09:11:15.156Z,10.40
2022-12-26T09:13:42.429Z,10.40
2022-12-26T09:16:17.640Z,10.40
2022-12-26T09:18:45.070Z,10.40
2022-12-26T09:21:12.718Z,10.40
2022-12-26T09:23:39.544Z,10.40
2022-12-26T09:26:13.978Z,10.40
2022-12-26T09:28:40.805Z,10.40
2022-12-26T09:31:10.757Z,10.40
2022-12-26T09:33:38.645Z,10.40
2022-12-26T09:36:12.480Z,10.40
2022-12-26T09:38:41.154Z,10.50
2022-12-26T09:41:31.111Z,10.40
2022-12-26T09:43:57.942Z,10.50
2022-12-26T09:46:43.477Z,10.50
2022-12-26T09:49:40.799Z,10.50
2022-12-26T09:52:13.638Z,10.50
2022-12-26T09:54:42.862Z,10.50
2022-12-26T09:57:15.395Z,10.50
2022-12-26T10:00:01.335Z,10.50
2022-12-26T10:02:28.266Z,10.50
2022-12-26T10:04:55.202Z,10.50
2022-12-26T10:07:40.476Z,10.50
2022-12-26T10:10:28.292Z,10.50
2022-12-26T10:13:07.195Z,10.50
2022-12-26T10:15:48.555Z,10.50
2022-12-26T10:18:22.893Z,10.50
2022-12-26T10:21:06.209Z,10.60
2022-12-26T10:23:44.221Z,10.60
2022-12-26T10:26:24.188Z,10.70
2022-12-26T10:31:35.825Z,10.70
2022-12-26T10:34:15.265Z,10.70
2022-12-26T10:40:29.836Z,10.70
2022-12-26T10:42:59.527Z,10.70
2022-12-26T10:45:36.622Z,10.70
2022-12-26T10:48:03.443Z,10.60
2022-12-26T10:50:32.131Z,10.60
2022-12-26T10:52:59.414Z,10.60
2022-12-26T10:55:34.471Z,10.70
2022-12-26T10:58:30.928Z,10.70
2022-12-26T11:00:57.664Z,10.70
2022-12-26T11:03:24.427Z,10.80
2022-12-26T11:06:09.437Z,10.80
2022-12-26T11:08:46.301Z,10.80
2022-12-26T11:11:22.550Z,10.80
2022-12-26T11:14:01.843Z,10.80
2022-12-26T11:16:31.751Z,10.90
2022-12-26T11:18:58.610Z,10.90
2022-12-26T11:21:29.624Z,10.90
2022-12-26T11:24:08.844Z,10.90
2022-12-26T11:26:35.834Z,10.90
2022-12-26T11:29:11.659Z,10.90
2022-12-26T11:31:39.274Z,11.00
2022-12-26T11:34:10.277Z,11.00
2022-12-26T11:36:40.299Z,11.00
2022-12-26T11:39:20.627Z,10.90
2022-12-26T11:41:49.061Z,10.90
2022-12-26T11:44:26.173Z,10.90
2022-12-26T11:47:00.142Z,10.90
2022-12-26T11:49:41.616Z,11.00
2022-12-26T11:52:42.707Z,11.00
2022-12-26T11:55:27.898Z,11.00
2022-12-26T11:58:12.748Z,10.90
2022-12-26T12:00:43.874Z,10.90
2022-12-26T12:03:15.048Z,10.90
2022-12-26T12:05:52.913Z,10.90
2022-12-26T12:08:31.818Z,10.90
2022-12-26T12:11:12.460Z,10.90
2022-12-26T12:13:45.337Z,10.90
2022-12-26T12:16:30.736Z,11.00
2022-12-26T12:19:08.847Z,11.00
2022-12-26T12:22:07.721Z,11.00
2022-12-26T12:25:04.475Z,11.10
2022-12-26T12:27:48.440Z,11.10
2022-12-26T12:30:24.489Z,11.00
2022-12-26T12:33:10.837Z,10.90
2022-12-26T12:36:05.361Z,10.90
2022-12-26T12:38:40.954Z,11.00
2022-12-26T12:41:34.655Z,10.90
2022-12-26T12:44:04.111Z,10.90
2022-12-26T12:46:42.817Z,10.90
2022-12-26T12:49:27.117Z,10.90
2022-12-26T12:52:02.251Z,10.90
2022-12-26T12:55:06.210Z,10.90
2022-12-26T12:57:38.181Z,10.90
2022-12-26T13:00:16.804Z,10.90
2022-12-26T13:02:56.780Z,10.90
2022-12-26T13:05:39.066Z,10.80
2022-12-26T13:08:25.235Z,10.90
2022-12-26T13:10:59.083Z,10.90
2022-12-26T13:13:53.511Z,10.90
2022-12-26T13:16:24.244Z,10.90
2022-12-26T13:18:52.368Z,10.80
2022-12-26T13:21:19.372Z,10.80
2022-12-26T13:24:11.200Z,10.80
2022-12-26T13:26:39.043Z,10.80
2022-12-26T13:29:39.963Z,10.80
2022-12-26T13:32:19.875Z,10.80
2022-12-26T13:34:46.776Z,10.80
2022-12-26T13:37:32.297Z,10.80
2022-12-26T13:40:03.760Z,10.80
2022-12-26T13:42:56.640Z,10.70
2022-12-26T13:45:35.798Z,10.70
2022-12-26T13:48:12.514Z,10.70
2022-12-26T13:51:01.461Z,10.70
2022-12-26T13:53:33.178Z,10.70
2022-12-26T13:56:04.923Z,10.70
2022-12-26T13:58:52.356Z,10.70
2022-12-26T14:01:31.428Z,10.70
2022-12-26T14:04:01.381Z,10.70
2022-12-26T14:06:46.698Z,10.70
2022-12-26T14:09:51.105Z,10.60
2022-12-26T14:12:34.592Z,10.60
2022-12-26T14:15:29.842Z,10.60
2022-12-26T14:18:14.809Z,10.60
2022-12-26T14:21:12.150Z,10.60
2022-12-26T14:24:17.031Z,10.60
2022-12-26T14:26:54.690Z,10.60
2022-12-26T14:30:09.268Z,10.50
2022-12-26T14:33:02.057Z,10.40
2022-12-26T14:35:54.232Z,10.20
2022-12-26T14:38:53.453Z,10.10
2022-12-26T14:41:38.976Z,10.00
2022-12-26T14:44:25.914Z,10.00
2022-12-26T14:46:52.985Z,9.90
2022-12-26T14:49:23.893Z,9.90
2022-12-26T14:51:50.727Z,10.00
2022-12-26T14:54:22.071Z,9.90
2022-12-26T14:56:49.894Z,9.90
2022-12-26T14:59:27.150Z,10.00
2022-12-26T15:02:31.073Z,10.00
2022-12-26T15:05:06.654Z,10.00
2022-12-26T15:07:45.442Z,10.00
2022-12-26T15:10:42.732Z,10.00
2022-12-26T15:13:34.564Z,10.00
2022-12-26T15:16:19.803Z,10.00
2022-12-26T15:19:11.486Z,10.00
2022-12-26T15:22:01.331Z,9.60
2022-12-26T15:25:17.674Z,9.30
2022-12-26T15:27:40.330Z,9.00
2022-12-26T15:30:19.623Z,8.90
2022-12-26T15:33:03.061Z,8.80
2022-12-26T15:35:35.927Z,8.80
2022-12-26T15:38:28.964Z,8.90
2022-12-26T15:41:00.027Z,8.80
2022-12-26T15:43:48.858Z,8.80
2022-12-26T15:46:35.634Z,8.80
2022-12-26T15:49:15.591Z,8.80
2022-12-26T15:51:58.252Z,8.80
2022-12-26T15:55:02.574Z,8.80
2022-12-26T15:57:42.089Z,8.70
2022-12-26T16:00:09.677Z,8.70
2022-12-26T16:03:02.089Z,8.70
2022-12-26T16:05:51.553Z,8.60
2022-12-26T16:08:37.177Z,8.70
2022-12-26T16:11:18.068Z,8.60
2022-12-26T16:14:00.874Z,8.60
2022-12-26T16:16:29.898Z,8.60
2022-12-26T16:18:56.628Z,8.50
2022-12-26T16:21:44.429Z,8.50
2022-12-26T16:24:11.828Z,8.50
2022-12-26T16:26:43.597Z,8.50
2022-12-26T16:29:14.348Z,8.60
2022-12-26T16:31:41.028Z,8.60
2022-12-26T16:34:11.469Z,8.60
2022-12-26T16:36:39.681Z,8.60
2022-12-26T16:39:09.281Z,8.60
2022-12-26T16:41:36.509Z,8.50
2022-12-26T16:44:30.243Z,8.50
2022-12-26T16:47:00.203Z,8.50
2022-12-26T16:49:27.483Z,8.50
2022-12-26T16:51:54.787Z,8.50
2022-12-26T16:54:21.472Z,8.40
2022-12-26T16:56:53.383Z,8.50
2022-12-26T16:59:22.919Z,8.50
2022-12-26T17:01:50.897Z,8.50
2022-12-26T17:04:19.966Z,8.50
2022-12-26T17:07:09.080Z,8.40
2022-12-26T17:09:41.727Z,8.40
2022-12-26T17:12:08.766Z,8.10
2022-12-26T17:14:39.771Z,8.10
2022-12-26T17:17:25.837Z,8.00
2022-12-26T17:19:57.009Z,8.00
2022-12-26T17:22:34.470Z,8.00
2022-12-26T17:25:27.645Z,7.90
2022-12-26T17:28:14.828Z,7.90
2022-12-26T17:30:42.723Z,8.00
2022-12-26T17:33:18.197Z,8.00
2022-12-26T17:36:52.280Z,8.10
2022-12-26T17:38:44.409Z,8.00
2022-12-26T17:41:14.422Z,7.90
2022-12-26T17:43:41.738Z,7.80
2022-12-26T17:46:10.478Z,7.80
2022-12-26T17:48:37.352Z,7.80
2022-12-26T17:51:06.099Z,7.70
2022-12-26T17:53:35.023Z,7.70
2022-12-26T17:56:15.703Z,7.50
2022-12-26T17:58:42.498Z,7.40
2022-12-26T18:01:09.366Z,7.40
2022-12-26T18:03:36.181Z,7.30
2022-12-26T18:06:03.045Z,7.30
2022-12-26T18:08:38.061Z,7.30
2022-12-26T18:11:06.947Z,7.20
2022-12-26T18:13:33.831Z,7.20
2022-12-26T18:16:02.241Z,7.30
2022-12-26T18:18:42.910Z,7.10
2022-12-26T18:21:11.017Z,7.10
2022-12-26T18:23:37.971Z,7.00
2022-12-26T18:26:13.439Z,7.10
2022-12-26T18:28:44.171Z,7.10
2022-12-26T18:31:17.090Z,7.20
2022-12-26T18:33:43.924Z,7.20
2022-12-26T18:36:12.166Z,7.20
2022-12-26T18:38:38.833Z,7.20
2022-12-26T18:41:08.078Z,7.30
2022-12-26T18:43:34.879Z,7.30
2022-12-26T18:46:01.613Z,7.20
2022-12-26T18:48:28.305Z,7.30
2022-12-26T18:50:55.024Z,7.20
2022-12-26T18:53:21.699Z,7.20
2022-12-26T18:55:48.421Z,7.10
2022-12-26T18:58:15.126Z,7.00
2022-12-26T19:00:44.070Z,7.00
2022-12-26T19:03:10.769Z,6.90
2022-12-26T19:05:37.465Z,6.90
2022-12-26T19:08:04.286Z,6.90
2022-12-26T19:10:32.892Z,6.80
2022-12-26T19:13:05.596Z,6.90
2022-12-26T19:15:34.268Z,6.70
2022-12-26T19:18:00.991Z,6.60
2022-12-26T19:20:27.717Z,6.70
2022-12-26T19:22:54.486Z,6.60
2022-12-26T19:25:22.045Z,6.70
2022-12-26T19:27:48.810Z,6.80
2022-12-26T19:30:16.298Z,6.70
2022-12-26T19:32:45.614Z,6.80
2022-12-26T19:35:12.506Z,6.80
2022-12-26T19:37:39.232Z,6.90
2022-12-26T19:40:07.012Z,6.80
2022-12-26T19:42:34.583Z,6.70
2022-12-26T19:45:01.550Z,6.70
2022-12-26T19:47:28.226Z,6.40
2022-12-26T19:49:54.856Z,6.30
2022-12-26T19:52:21.555Z,6.30
2022-12-26T19:54:48.248Z,6.40
2022-12-26T19:57:14.925Z,6.40
2022-12-26T19:59:41.628Z,6.40
2022-12-26T20:02:11.131Z,6.40
2022-12-26T20:04:37.971Z,6.10
2022-12-26T20:07:04.802Z,6.00
2022-12-26T20:09:31.504Z,5.90
2022-12-26T20:11:58.235Z,5.70
2022-12-26T20:14:26.230Z,5.70
2022-12-26T20:17:06.128Z,5.70
2022-12-26T20:19:34.228Z,5.70
2022-12-26T20:22:00.989Z,5.70
2022-12-26T20:24:27.782Z,5.50
2022-12-26T20:26:54.567Z,5.30
2022-12-26T20:29:21.375Z,5.30
2022-12-26T20:31:48.074Z,5.40
2022-12-26T20:34:22.764Z,5.40
2022-12-26T20:36:49.522Z,5.20
2022-12-26T20:39:17.509Z,5.00
2022-12-26T20:41:44.269Z,4.90
2022-12-26T20:44:14.871Z,5.10
2022-12-26T20:46:41.778Z,5.30
2022-12-26T20:49:09.746Z,5.30
2022-12-26T20:51:38.123Z,5.30
2022-12-26T20:54:06.153Z,5.30
2022-12-26T20:56:32.929Z,5.10
2022-12-26T20:58:59.937Z,5.20
2022-12-26T21:01:27.107Z,5.20
2022-12-26T21:03:54.393Z,5.20
2022-12-26T21:06:23.249Z,5.20
2022-12-26T21:08:50.770Z,5.20
2022-12-26T21:11:22.129Z,5.20
2022-12-26T21:13:49.354Z,5.10
2022-12-26T21:16:17.674Z,5.10
2022-12-26T21:18:44.479Z,5.00
2022-12-26T21:21:22.117Z,5.00
2022-12-26T21:23:48.963Z,4.90
2022-12-26T21:26:15.937Z,4.90
2022-12-26T21:28:42.687Z,5.00
2022-12-26T21:31:10.295Z,4.90
2022-12-26T21:33:44.055Z,5.00
2022-12-26T21:36:11.904Z,5.00
2022-12-26T21:38:38.687Z,4.80
2022-12-26T21:41:09.283Z,4.80
2022-12-26T21:43:36.066Z,4.90
2022-12-26T21:46:08.449Z,4.80
2022-12-26T21:48:35.463Z,4.90
2022-12-26T21:51:02.317Z,4.80
2022-12-26T21:53:29.068Z,4.70
2022-12-26T21:55:55.750Z,4.70
2022-12-26T21:58:22.481Z,4.70
2022-12-26T22:00:49.262Z,4.80
2022-12-26T22:03:34.452Z,4.70
2022-12-26T22:06:01.159Z,4.70
2022-12-26T22:08:27.894Z,4.80
2022-12-26T22:11:13.481Z,4.70
2022-12-26T22:13:41.304Z,4.70
2022-12-26T22:16:09.714Z,4.70
2022-12-26T22:18:40.564Z,4.70
2022-12-26T22:21:11.355Z,4.70
2022-12-26T22:23:38.447Z,4.70
2022-12-26T22:26:05.735Z,4.70
2022-12-26T22:28:33.046Z,4.70
2022-12-26T22:30:59.992Z,4.60
2022-12-26T22:33:26.947Z,4.60
2022-12-26T22:35:53.633Z,4.60
2022-12-26T22:38:20.505Z,4.60
2022-12-26T22:40:55.056Z,4.60
2022-12-26T22:43:22.374Z,4.60
2022-12-26T22:45:49.519Z,4.60
2022-12-26T22:48:16.694Z,4.60
2022-12-26T22:50:47.461Z,4.60
2022-12-26T22:53:14.325Z,4.60
2022-12-26T22:55:48.512Z,4.60
2022-12-26T22:58:15.906Z,4.70
2022-12-26T23:00:42.927Z,4.60
2022-12-26T23:03:09.918Z,4.50
2022-12-26T23:05:37.278Z,4.50
2022-12-26T23:08:04.219Z,4.40
2022-12-26T23:10:31.361Z,4.40
2022-12-26T23:12:58.619Z,4.50
2022-12-26T23:15:26.617Z,4.50
2022-12-26T23:18:21.090Z,4.50
2022-12-26T23:21:26.098Z,4.60
2022-12-26T23:23:52.776Z,4.50
2022-12-26T23:26:19.507Z,4.50
2022-12-26T23:29:04.745Z,4.40
2022-12-26T23:31:31.480Z,4.50
2022-12-26T23:33:58.251Z,4.50
2022-12-26T23:36:24.941Z,4.50
2022-12-26T23:38:51.679Z,4.60
2022-12-26T23:41:18.406Z,4.50
2022-12-26T23:43:45.051Z,4.50
2022-12-26T23:46:11.969Z,4.60
2022-12-26T23:48:38.664Z,4.60
2022-12-26T23:51:06.594Z,4.70
2022-12-26T23:53:33.275Z,4.60
2022-12-26T23:55:59.934Z,4.60
2022-12-26T23:58:26.589Z,4.50
